Augusta, Wisconsin
Current Conditions -  °F | °C
As of 5:56 PM on Monday 22 Dec 2014 (Local Time) from KEAU Reporting Station
Overcast Overcast  
Wind Chill: 28°   Ceiling: 3700
Heat Index: 36°   Visibility: 9mi
Dew Point: 31°   Wind: 12mph
Humidity: 82%   Direction: 70°ENE
Pressure: 29.64"   Gusts: NA
Location:  44.68°N, 91.12°W
Report Text: KEAU 222356Z 07010KT 9SM OVC037 02/M01 A2964 RMK AO2 SLP046 T00221006 10039 20022 58003
Loading
Personal Weather Stations






























Interactive Weather Map New forecast layout! Learn more

10-Day Weather Forecast

Advertisements
Track Severe Weather on mobile